Time;durP1;ratioP1;P1;durP2;ratioP2;P2;SDS_P1;SDS_P2;PMS_P1;PMS_P2;Temp;Humidity;BMP_temperature;BMP_pressure;BME280_temperature;BME280_humidity;BME280_pressure;Samples;Min_cycle;Max_cycle;Signal;HPM_P1;HPM_P2
2022/12/15 00:41:00;;;;;;;;;;;-1.20;99.90;;;;;;5011157;28;20031;-76
2022/12/15 00:43:27;;;;;;;;;;;-1.20;99.90;;;;;;5011848;28;19968;-79
2022/12/15 00:48:37;;;;;;;;;;;-1.30;99.90;;;;;;5011131;28;19933;-77
2022/12/15 00:51:03;;;;;;;;;;;-1.20;99.90;;;;;;5011138;28;19909;-78
2022/12/15 01:20:55;;;;;;;;;;;-1.30;99.90;;;;;;5014047;28;19968;-77
2022/12/15 01:23:20;;;;;;;;;;;-1.40;99.90;;;;;;5014400;28;20378;-77
2022/12/15 01:25:46;;;;;;;;;;;-1.40;99.90;;;;;;5014457;28;19991;-78
2022/12/15 01:28:11;;;;;;;;;;;-1.40;99.90;;;;;;5013025;28;20288;-77
2022/12/15 01:30:37;;;;;;;;;;;-1.40;99.90;;;;;;5014199;28;19909;-78
2022/12/15 01:33:03;;;;;;;;;;;-1.50;99.90;;;;;;5014293;28;20012;-77
2022/12/15 01:35:28;;;;;;;;;;;-1.50;99.90;;;;;;5013953;28;19922;-77
2022/12/15 01:37:54;;;;;;;;;;;-1.50;99.90;;;;;;5014014;28;20247;-78
2022/12/15 01:43:08;;;;;;;;;;;-1.60;99.90;;;;;;5014664;28;19975;-78
2022/12/15 01:45:34;;;;;;;;;;;-1.60;99.90;;;;;;5013869;28;20000;-79
2022/12/15 01:47:59;;;;;;;;;;;-1.60;99.90;;;;;;5012834;28;20401;-78
2022/12/15 01:50:26;;;;;;;;;;;-1.60;99.90;;;;;;5014572;28;20378;-78
2022/12/15 01:52:53;;;;;;;;;;;-1.60;99.90;;;;;;5013992;28;20562;-78
2022/12/15 01:55:19;;;;;;;;;;;-1.60;99.90;;;;;;5012917;28;19996;-78
2022/12/15 01:57:45;;;;;;;;;;;-1.60;99.90;;;;;;5013803;28;19920;-78
2022/12/15 02:00:11;;;;;;;;;;;-1.50;99.90;;;;;;5012864;28;19945;-78
2022/12/15 02:02:37;;;;;;;;;;;-1.50;99.90;;;;;;5013683;28;20309;-78
2022/12/15 02:05:03;;;;;;;;;;;-1.50;99.90;;;;;;5014898;28;20008;-78
2022/12/15 02:07:29;;;;;;;;;;;-1.50;99.90;;;;;;5014139;28;20254;-78
2022/12/15 02:09:57;;;;;;;;;;;-1.50;99.90;;;;;;5013545;28;19909;-77
2022/12/15 02:12:26;;;;;;;;;;;-1.50;99.90;;;;;;5013934;28;19910;-77
2022/12/15 02:14:54;;;;;;;;;;;-1.50;99.90;;;;;;5013558;28;19913;-78
2022/12/15 02:17:26;;;;;;;;;;;-1.50;99.90;;;;;;5014145;28;20012;-78
2022/12/15 02:20:05;;;;;;;;;;;-1.50;99.90;;;;;;5013853;28;20000;-78
2022/12/15 02:22:43;;;;;;;;;;;-1.60;99.90;;;;;;5013962;28;19917;-79
2022/12/15 02:25:21;;;;;;;;;;;-1.60;99.90;;;;;;5013687;28;19917;-78
2022/12/15 02:27:55;;;;;;;;;;;-1.60;99.90;;;;;;5013329;28;19932;-78
2022/12/15 02:30:33;;;;;;;;;;;-1.60;99.90;;;;;;5013402;28;19909;-78
2022/12/15 02:33:04;;;;;;;;;;;-1.60;99.90;;;;;;5013860;28;19968;-78
2022/12/15 02:35:44;;;;;;;;;;;-1.60;99.90;;;;;;5013045;28;19980;-78
2022/12/15 02:38:09;;;;;;;;;;;-1.60;99.90;;;;;;5013467;28;19953;-78
2022/12/15 02:40:35;;;;;;;;;;;-1.60;99.90;;;;;;5013149;28;19971;-79
2022/12/15 02:43:02;;;;;;;;;;;-1.60;99.90;;;;;;5013269;28;19914;-77
2022/12/15 02:45:40;;;;;;;;;;;-1.60;99.90;;;;;;5012777;28;19910;-77
2022/12/15 02:48:05;;;;;;;;;;;-1.70;99.90;;;;;;5012938;28;19920;-77
2022/12/15 02:50:37;;;;;;;;;;;-1.70;99.90;;;;;;5012737;28;19910;-77
2022/12/15 02:53:06;;;;;;;;;;;-1.70;99.90;;;;;;5011958;28;19910;-79
2022/12/15 02:55:31;;;;;;;;;;;-1.70;99.90;;;;;;5013251;28;19909;-78
2022/12/15 02:58:01;;;;;;;;;;;-1.80;99.90;;;;;;5012778;28;20046;-78
2022/12/15 03:00:29;;;;;;;;;;;-1.80;99.90;;;;;;5012691;28;19980;-78
2022/12/15 03:02:55;;;;;;;;;;;-1.90;99.90;;;;;;5010761;28;20308;-79
2022/12/15 03:05:22;;;;;;;;;;;-1.90;99.90;;;;;;5012809;28;19909;-77
2022/12/15 03:07:49;;;;;;;;;;;-1.90;99.90;;;;;;5012211;28;19932;-78
2022/12/15 03:10:15;;;;;;;;;;;-1.90;99.90;;;;;;5012488;28;20012;-78
2022/12/15 03:12:41;;;;;;;;;;;-2.00;99.90;;;;;;5012384;28;20009;-78
2022/12/15 03:15:07;;;;;;;;;;;-2.00;99.90;;;;;;5012476;28;19948;-78
2022/12/15 03:17:32;;;;;;;;;;;-1.90;99.90;;;;;;5012350;28;20247;-78
2022/12/15 03:19:58;;;;;;;;;;;-2.00;99.90;;;;;;5011872;28;19917;-77
2022/12/15 03:22:23;;;;;;;;;;;-2.00;99.90;;;;;;5012508;28;20027;-77
2022/12/15 03:24:49;;;;;;;;;;;-2.00;99.90;;;;;;5011034;28;19909;-78
2022/12/15 03:27:15;;;;;;;;;;;-2.00;99.90;;;;;;5012615;28;19909;-78
2022/12/15 03:29:40;;;;;;;;;;;-2.00;99.90;;;;;;5012192;28;19931;-80
2022/12/15 03:32:06;;;;;;;;;;;-2.00;99.90;;;;;;5011268;28;19910;-78
2022/12/15 03:34:31;;;;;;;;;;;-2.10;99.90;;;;;;5011982;28;20016;-78
2022/12/15 03:36:57;;;;;;;;;;;-2.10;99.90;;;;;;5011385;28;20398;-78
2022/12/15 03:39:22;;;;;;;;;;;-2.10;99.90;;;;;;5012371;28;19957;-78
2022/12/15 03:41:48;;;;;;;;;;;-2.10;99.90;;;;;;5011502;28;20015;-78
2022/12/15 03:44:14;;;;;;;;;;;-2.10;99.90;;;;;;5012162;28;19913;-78
2022/12/15 03:46:39;;;;;;;;;;;-2.10;99.90;;;;;;5010555;28;19916;-81
2022/12/15 03:49:05;;;;;;;;;;;-2.20;99.90;;;;;;5012527;28;20000;-78
2022/12/15 03:51:30;;;;;;;;;;;-2.20;99.90;;;;;;5012239;28;20263;-79
2022/12/15 03:53:57;;;;;;;;;;;-2.20;99.90;;;;;;5011147;28;19963;-78
2022/12/15 03:56:23;;;;;;;;;;;-2.20;99.90;;;;;;5011672;28;19916;-78
2022/12/15 03:58:49;;;;;;;;;;;-2.20;99.90;;;;;;5011682;28;20004;-78
2022/12/15 04:01:26;;;;;;;;;;;-2.20;99.90;;;;;;5012063;28;19913;-78
2022/12/15 04:03:52;;;;;;;;;;;-2.20;99.90;;;;;;5011743;28;19980;-78
2022/12/15 04:06:18;;;;;;;;;;;-2.20;99.90;;;;;;5011829;28;19909;-78
2022/12/15 04:08:43;;;;;;;;;;;-2.20;99.90;;;;;;5011531;28;19910;-79
2022/12/15 04:11:09;;;;;;;;;;;-2.20;99.90;;;;;;5011855;28;19909;-78
2022/12/15 04:13:34;;;;;;;;;;;-2.20;99.90;;;;;;5011464;28;19910;-78
2022/12/15 04:16:00;;;;;;;;;;;-2.20;99.90;;;;;;5011166;28;19914;-78
2022/12/15 04:18:26;;;;;;;;;;;-2.10;99.90;;;;;;5011467;28;19909;-78
2022/12/15 04:20:51;;;;;;;;;;;-2.10;99.90;;;;;;5011464;28;19913;-78
2022/12/15 04:23:17;;;;;;;;;;;-2.10;99.90;;;;;;5010598;28;19920;-78
2022/12/15 05:31:54;;;;;;;;;;;-2.20;99.90;;;;;;5015682;28;19940;-78
2022/12/15 05:34:26;;;;;;;;;;;-2.20;99.90;;;;;;5015315;28;19910;-78
2022/12/15 05:36:52;;;;;;;;;;;-2.30;99.90;;;;;;5014893;28;19929;-79
2022/12/15 05:39:18;;;;;;;;;;;-2.30;99.90;;;;;;5015252;28;19913;-78
2022/12/15 05:41:44;;;;;;;;;;;-2.30;99.90;;;;;;5015062;28;19913;-78
2022/12/15 05:44:10;;;;;;;;;;;-2.40;99.90;;;;;;5014673;28;20008;-79
2022/12/15 05:46:36;;;;;;;;;;;-2.30;99.90;;;;;;5013615;28;19917;-78
2022/12/15 05:49:05;;;;;;;;;;;-2.30;99.90;;;;;;5014020;28;19913;-79
2022/12/15 05:51:31;;;;;;;;;;;-2.30;99.90;;;;;;5014976;28;20396;-78
2022/12/15 05:53:57;;;;;;;;;;;-2.30;99.90;;;;;;5014806;28;19957;-79
2022/12/15 05:56:24;;;;;;;;;;;-2.30;99.90;;;;;;5014875;28;20000;-79
2022/12/15 05:58:49;;;;;;;;;;;-2.30;99.90;;;;;;5015017;28;20043;-80
2022/12/15 06:01:16;;;;;;;;;;;-2.40;99.90;;;;;;5014672;28;20377;-79
2022/12/15 06:03:41;;;;;;;;;;;-2.40;99.90;;;;;;5014316;28;20286;-79
2022/12/15 06:06:07;;;;;;;;;;;-2.40;99.90;;;;;;5014218;28;19916;-79
2022/12/15 06:08:34;;;;;;;;;;;-2.50;99.90;;;;;;5014508;28;20312;-79
2022/12/15 06:11:00;;;;;;;;;;;-2.40;99.90;;;;;;5013990;28;19955;-79
2022/12/15 06:13:26;;;;;;;;;;;-2.40;99.90;;;;;;5013111;28;19948;-79
2022/12/15 06:16:05;;;;;;;;;;;-2.40;99.90;;;;;;5014409;28;19910;-81
2022/12/15 06:18:33;;;;;;;;;;;-2.40;99.90;;;;;;5014623;28;19920;-79
2022/12/15 06:20:59;;;;;;;;;;;-2.50;99.90;;;;;;5014216;28;19928;-79
2022/12/15 06:23:25;;;;;;;;;;;-2.40;99.90;;;;;;5014449;28;19914;-79
2022/12/15 06:25:50;;;;;;;;;;;-2.40;99.90;;;;;;5014459;28;20002;-80
2022/12/15 06:28:22;;;;;;;;;;;-2.50;99.90;;;;;;5013354;28;19910;-79
2022/12/15 06:30:49;;;;;;;;;;;-2.40;99.90;;;;;;5013812;28;19976;-78
2022/12/15 06:33:14;;;;;;;;;;;-2.50;99.90;;;;;;5013658;28;20332;-79
2022/12/15 06:35:40;;;;;;;;;;;-2.40;99.90;;;;;;5013913;28;19977;-79
2022/12/15 06:38:05;;;;;;;;;;;-2.40;99.90;;;;;;5013234;28;19913;-79
2022/12/15 06:40:31;;;;;;;;;;;-2.40;99.90;;;;;;5013535;28;19921;-79
2022/12/15 06:42:56;;;;;;;;;;;-2.40;99.90;;;;;;5013126;28;19914;-79
2022/12/15 06:45:22;;;;;;;;;;;-2.40;99.90;;;;;;5013671;28;19917;-79
2022/12/15 06:47:47;;;;;;;;;;;-2.40;99.90;;;;;;5014009;28;19920;-78
2022/12/15 06:50:13;;;;;;;;;;;-2.40;99.90;;;;;;5013005;28;20012;-79
2022/12/15 06:52:39;;;;;;;;;;;-2.40;99.90;;;;;;5014390;28;20354;-80
2022/12/15 06:55:04;;;;;;;;;;;-2.40;99.90;;;;;;5013306;28;19909;-78
2022/12/15 06:57:30;;;;;;;;;;;-2.40;99.90;;;;;;5013229;28;20299;-79
2022/12/15 06:59:56;;;;;;;;;;;-2.40;99.90;;;;;;5012153;28;20005;-79
2022/12/15 07:02:21;;;;;;;;;;;-2.40;99.90;;;;;;5012046;28;20012;-76
2022/12/15 07:04:47;;;;;;;;;;;-2.40;99.90;;;;;;5013551;28;19987;-76
2022/12/15 07:07:13;;;;;;;;;;;-2.40;99.90;;;;;;5013117;28;20060;-77
2022/12/15 07:09:38;;;;;;;;;;;-2.50;99.90;;;;;;5013553;28;19910;-79
2022/12/15 07:12:04;;;;;;;;;;;-2.50;99.90;;;;;;5013260;28;20385;-79
2022/12/15 07:14:30;;;;;;;;;;;-2.50;99.90;;;;;;5013392;28;19921;-77
2022/12/15 07:16:55;;;;;;;;;;;-2.50;99.90;;;;;;5012275;28;19910;-78
2022/12/15 07:19:21;;;;;;;;;;;-2.50;99.90;;;;;;5012545;28;19909;-76
2022/12/15 07:21:47;;;;;;;;;;;-2.50;99.90;;;;;;5011966;28;20287;-77
2022/12/15 07:24:12;;;;;;;;;;;-2.50;99.90;;;;;;5011978;28;20275;-77
2022/12/15 07:26:39;;;;;;;;;;;-2.50;99.90;;;;;;5012383;28;19939;-78
2022/12/15 07:29:04;;;;;;;;;;;-2.50;99.90;;;;;;5011645;28;19913;-78
2022/12/15 07:31:30;;;;;;;;;;;-2.60;99.90;;;;;;5011805;28;19936;-78
2022/12/15 07:33:57;;;;;;;;;;;-2.60;99.90;;;;;;5011702;28;20275;-79
2022/12/15 07:36:22;;;;;;;;;;;-2.60;99.90;;;;;;5012006;28;19922;-77
2022/12/15 07:38:48;;;;;;;;;;;-2.60;99.90;;;;;;5011892;28;19909;-78
2022/12/15 07:41:14;;;;;;;;;;;-2.60;99.90;;;;;;5011801;28;19957;-77
2022/12/15 07:43:40;;;;;;;;;;;-2.70;99.90;;;;;;5011947;28;20094;-77
2022/12/15 07:46:05;;;;;;;;;;;-2.70;99.90;;;;;;5011405;28;20254;-78
2022/12/15 07:48:31;;;;;;;;;;;-2.70;99.90;;;;;;5011810;28;20102;-77
2022/12/15 07:50:58;;;;;;;;;;;-2.80;99.90;;;;;;5011683;28;19963;-79
2022/12/15 07:53:26;;;;;;;;;;;-2.80;99.90;;;;;;5011734;28;20325;-78
2022/12/15 07:55:53;;;;;;;;;;;-2.80;99.90;;;;;;5010683;28;20262;-78
2022/12/15 07:58:19;;;;;;;;;;;-2.80;99.90;;;;;;5011060;28;20232;-76
2022/12/15 08:00:45;;;;;;;;;;;-2.70;99.90;;;;;;5011342;28;19921;-77
2022/12/15 08:03:10;;;;;;;;;;;-2.80;99.90;;;;;;5011243;28;19951;-78
2022/12/15 08:05:36;;;;;;;;;;;-2.70;99.90;;;;;;5012153;28;19977;-77
2022/12/15 08:08:02;;;;;;;;;;;-2.70;99.90;;;;;;5011374;28;19916;-78
2022/12/15 08:10:27;;;;;;;;;;;-2.70;99.90;;;;;;5011012;28;19910;-77
2022/12/15 08:12:54;;;;;;;;;;;-2.60;99.90;;;;;;5011366;28;19958;-77
2022/12/15 08:15:20;;;;;;;;;;;-2.60;99.90;;;;;;5011203;28;19945;-77
2022/12/15 08:17:45;;;;;;;;;;;-2.60;99.90;;;;;;5011857;28;19909;-77
2022/12/15 08:20:11;;;;;;;;;;;-2.60;99.90;;;;;;5011346;28;19910;-77
2022/12/15 08:22:36;;;;;;;;;;;-2.60;99.90;;;;;;5012083;28;19914;-77
2022/12/15 08:25:02;;;;;;;;;;;-2.60;99.90;;;;;;5011078;28;19910;-78
2022/12/15 08:27:28;;;;;;;;;;;-2.60;99.90;;;;;;5011959;28;20392;-77
2022/12/15 08:29:53;;;;;;;;;;;-2.60;99.90;;;;;;5012050;28;20036;-77
2022/12/15 08:32:19;;;;;;;;;;;-2.60;99.90;;;;;;5011021;28;20442;-77
2022/12/15 08:34:46;;;;;;;;;;;-2.50;99.90;;;;;;5010056;28;19917;-76
2022/12/15 08:37:12;;;;;;;;;;;-2.50;99.90;;;;;;5010976;28;19975;-77
2022/12/15 08:39:38;;;;;;;;;;;-2.50;99.90;;;;;;5011196;28;20336;-77
2022/12/15 08:42:04;;;;;;;;;;;-2.50;99.90;;;;;;5009691;28;19921;-78
2022/12/15 08:44:29;;;;;;;;;;;-2.50;99.90;;;;;;5009898;28;20398;-77
2022/12/15 08:46:55;;;;;;;;;;;-2.50;99.90;;;;;;5011357;28;20263;-77
2022/12/15 08:49:20;;;;;;;;;;;-2.50;99.90;;;;;;5009362;28;19989;-77
2022/12/15 08:51:46;;;;;;;;;;;-2.50;99.90;;;;;;5015375;28;19959;-77
2022/12/15 08:54:12;;;;;;;;;;;-2.50;99.90;;;;;;5019711;28;20359;-77
2022/12/15 08:56:37;;;;;;;;;;;-2.50;99.90;;;;;;5020713;28;19909;-78
2022/12/15 08:59:03;;;;;;;;;;;-2.50;99.90;;;;;;5021078;28;20314;-78
2022/12/15 09:01:30;;;;;;;;;;;-2.50;99.90;;;;;;5021008;28;19914;-77
2022/12/15 09:03:56;;;;;;;;;;;-2.50;99.90;;;;;;5019554;28;19989;-76
2022/12/15 09:06:29;;;;;;;;;;;-2.40;99.90;;;;;;5015316;28;20086;-77
2022/12/15 09:08:56;;;;;;;;;;;-2.40;99.90;;;;;;5012189;28;19921;-77
2022/12/15 09:11:22;;;;;;;;;;;-2.30;99.90;;;;;;5011318;28;19913;-77
2022/12/15 09:13:48;;;;;;;;;;;-2.30;99.90;;;;;;5011670;28;19914;-77
2022/12/15 09:16:14;;;;;;;;;;;-2.30;99.90;;;;;;5011224;28;19932;-77
2022/12/15 09:18:43;;;;;;;;;;;-2.20;99.90;;;;;;5011746;28;19918;-77
2022/12/15 09:21:10;;;;;;;;;;;-2.10;99.90;;;;;;5011299;28;19920;-77
2022/12/15 09:23:36;;;;;;;;;;;-2.10;99.90;;;;;;5013104;28;20287;-77
2022/12/15 09:26:06;;;;;;;;;;;-2.10;99.90;;;;;;5015279;28;19910;-77
2022/12/15 09:28:31;;;;;;;;;;;-2.00;99.90;;;;;;5014910;28;19910;-77
2022/12/15 09:31:04;;;;;;;;;;;-2.00;99.90;;;;;;5015225;28;19909;-77
2022/12/15 09:33:30;;;;;;;;;;;-1.90;99.90;;;;;;5014998;28;20000;-77
2022/12/15 09:35:55;;;;;;;;;;;-1.90;99.90;;;;;;5013048;28;20008;-77
2022/12/15 09:38:21;;;;;;;;;;;-1.80;99.90;;;;;;5014840;28;19920;-77
2022/12/15 09:40:47;;;;;;;;;;;-1.80;99.90;;;;;;5013903;28;20345;-77
2022/12/15 09:43:20;;;;;;;;;;;-1.70;99.90;;;;;;5014217;28;19913;-77
2022/12/15 09:45:49;;;;;;;;;;;-1.70;99.90;;;;;;5014368;28;20223;-76
2022/12/15 09:48:21;;;;;;;;;;;-1.60;99.90;;;;;;5014006;28;19921;-77
2022/12/15 09:50:49;;;;;;;;;;;-1.60;99.90;;;;;;5012913;28;20224;-77
2022/12/15 09:53:16;;;;;;;;;;;-1.60;99.90;;;;;;5012312;28;20409;-77
2022/12/15 09:55:42;;;;;;;;;;;-1.50;99.90;;;;;;5013767;28;20338;-76
2022/12/15 09:58:33;;;;;;;;;;;-1.50;99.90;;;;;;5013594;28;20000;-78
2022/12/15 10:01:22;;;;;;;;;;;-1.40;99.90;;;;;;5012691;28;20312;-77
2022/12/15 10:04:00;;;;;;;;;;;-1.40;99.90;;;;;;5007389;28;20320;-77
2022/12/15 10:06:28;;;;;;;;;;;-1.40;99.90;;;;;;5013559;28;19913;-77
2022/12/15 10:08:59;;;;;;;;;;;-1.30;99.90;;;;;;5014095;28;19909;-77
2022/12/15 10:11:24;;;;;;;;;;;-1.30;99.90;;;;;;5013627;28;19918;-77
2022/12/15 10:13:51;;;;;;;;;;;-1.20;99.90;;;;;;5013766;28;19914;-78
2022/12/15 10:16:34;;;;;;;;;;;-1.20;99.90;;;;;;5013033;28;20390;-78
2022/12/15 10:19:00;;;;;;;;;;;-1.20;99.90;;;;;;5013862;28;19921;-78
2022/12/15 10:21:26;;;;;;;;;;;-1.20;99.90;;;;;;5013780;28;19916;-78
2022/12/15 10:23:53;;;;;;;;;;;-1.20;99.90;;;;;;5013655;28;19925;-78
2022/12/15 10:26:19;;;;;;;;;;;-1.20;99.90;;;;;;5013279;28;19975;-78
2022/12/15 10:28:51;;;;;;;;;;;-1.20;99.90;;;;;;5013681;28;19910;-78
2022/12/15 10:31:24;;;;;;;;;;;-1.10;99.90;;;;;;5011534;28;19910;-78
2022/12/15 10:34:10;;;;;;;;;;;-1.10;99.90;;;;;;5013400;28;20001;-77
2022/12/15 10:36:35;;;;;;;;;;;-1.10;99.90;;;;;;5012633;28;20313;-77
2022/12/15 10:39:01;;;;;;;;;;;-1.00;99.90;;;;;;5013378;28;19910;-78
2022/12/15 10:41:30;;;;;;;;;;;-1.00;99.90;;;;;;5012360;28;19925;-78
2022/12/15 10:43:56;;;;;;;;;;;-1.00;99.90;;;;;;5012843;28;19913;-77
2022/12/15 10:46:23;;;;;;;;;;;-1.00;99.90;;;;;;5012525;28;19916;-78
2022/12/15 10:48:49;;;;;;;;;;;-0.90;99.90;;;;;;5013514;28;20347;-78
2022/12/15 10:51:35;;;;;;;;;;;-0.90;99.90;;;;;;5013156;28;19960;-78
2022/12/15 10:54:02;;;;;;;;;;;-0.80;99.90;;;;;;5013150;28;19910;-78
2022/12/15 10:56:28;;;;;;;;;;;-0.80;99.90;;;;;;5012578;28;20091;-77
2022/12/15 10:58:58;;;;;;;;;;;-0.80;99.90;;;;;;5012489;28;19910;-77
2022/12/15 11:01:25;;;;;;;;;;;-0.80;99.90;;;;;;5012108;28;20036;-77
2022/12/15 11:03:51;;;;;;;;;;;-0.70;99.90;;;;;;5012376;28;20390;-77
2022/12/15 11:06:21;;;;;;;;;;;-0.70;99.90;;;;;;5012219;28;20342;-77
2022/12/15 11:08:48;;;;;;;;;;;-0.70;99.90;;;;;;5012128;28;19985;-76
2022/12/15 11:14:11;;;;;;;;;;;-0.60;99.90;;;;;;5012195;28;19963;-78
2022/12/15 11:17:06;;;;;;;;;;;-0.50;99.90;;;;;;4994340;28;19910;-77
2022/12/15 11:19:43;;;;;;;;;;;-0.50;99.90;;;;;;5002631;28;19924;-78
2022/12/15 11:22:15;;;;;;;;;;;-0.40;99.90;;;;;;5012839;28;19921;-78
2022/12/15 11:24:50;;;;;;;;;;;-0.40;99.90;;;;;;5012817;28;19917;-78
2022/12/15 11:27:22;;;;;;;;;;;-0.30;99.90;;;;;;5012222;28;19909;-78
2022/12/15 11:29:47;;;;;;;;;;;-0.30;99.90;;;;;;5012651;28;19956;-77
2022/12/15 11:32:14;;;;;;;;;;;-0.30;99.90;;;;;;5012317;28;19948;-79
2022/12/15 11:34:46;;;;;;;;;;;-0.30;99.90;;;;;;5012456;28;20004;-77
2022/12/15 11:37:30;;;;;;;;;;;-0.20;99.90;;;;;;5012723;28;20032;-79
2022/12/15 11:40:14;;;;;;;;;;;-0.20;99.90;;;;;;5011878;28;20363;-77
2022/12/15 11:43:15;;;;;;;;;;;-0.10;99.90;;;;;;5011990;28;19918;-77
2022/12/15 11:45:49;;;;;;;;;;;-0.10;99.90;;;;;;4969745;28;20008;-77
2022/12/15 11:48:17;;;;;;;;;;;0.00;99.90;;;;;;5004939;28;19909;-78
2022/12/15 11:50:45;;;;;;;;;;;0.00;99.90;;;;;;5011751;28;19921;-77
2022/12/15 11:53:22;;;;;;;;;;;0.10;99.90;;;;;;5010436;28;19916;-78
2022/12/15 11:56:07;;;;;;;;;;;0.10;99.90;;;;;;5011648;28;20342;-77
2022/12/15 11:58:39;;;;;;;;;;;0.20;99.90;;;;;;5010972;28;19992;-77
2022/12/15 12:01:23;;;;;;;;;;;0.20;99.90;;;;;;5011718;28;19920;-77
2022/12/15 12:03:51;;;;;;;;;;;0.20;99.90;;;;;;5011716;28;19986;-77
2022/12/15 12:06:28;;;;;;;;;;;0.30;99.90;;;;;;5009717;28;19917;-78
2022/12/15 12:08:59;;;;;;;;;;;0.30;99.90;;;;;;5011271;28;19963;-77
2022/12/15 12:11:35;;;;;;;;;;;0.40;99.90;;;;;;5011400;28;20422;-77
2022/12/15 12:14:01;;;;;;;;;;;0.40;99.90;;;;;;5011244;28;19910;-77
2022/12/15 12:16:29;;;;;;;;;;;0.40;99.90;;;;;;5011158;28;20025;-77
2022/12/15 12:19:05;;;;;;;;;;;0.40;99.90;;;;;;5011216;28;19980;-77
2022/12/15 12:21:34;;;;;;;;;;;0.50;99.90;;;;;;5010978;28;20406;-77
2022/12/15 12:24:01;;;;;;;;;;;0.50;99.90;;;;;;5011085;28;19913;-77
2022/12/15 12:26:48;;;;;;;;;;;0.50;99.90;;;;;;5010930;28;19953;-77
2022/12/15 12:29:20;;;;;;;;;;;0.50;99.90;;;;;;5011341;28;20371;-79
2022/12/15 12:32:04;;;;;;;;;;;0.60;99.90;;;;;;5011204;28;19948;-77
2022/12/15 12:34:35;;;;;;;;;;;0.60;99.90;;;;;;5010724;28;19909;-76
2022/12/15 12:37:27;;;;;;;;;;;0.60;99.90;;;;;;5011265;28;19948;-77
2022/12/15 12:39:55;;;;;;;;;;;0.70;99.90;;;;;;5009181;28;19909;-77
2022/12/15 12:42:27;;;;;;;;;;;0.70;99.90;;;;;;5011017;28;20008;-78
2022/12/15 12:44:53;;;;;;;;;;;0.70;99.90;;;;;;5010361;28;19918;-77
2022/12/15 12:47:24;;;;;;;;;;;0.80;99.90;;;;;;5010996;28;19928;-78
2022/12/15 12:49:53;;;;;;;;;;;0.80;99.90;;;;;;5009803;28;19963;-77
2022/12/15 12:52:22;;;;;;;;;;;0.80;99.90;;;;;;5010470;28;19909;-78
2022/12/15 12:55:10;;;;;;;;;;;0.80;99.90;;;;;;5011409;28;19963;-78
2022/12/15 12:57:37;;;;;;;;;;;0.90;99.90;;;;;;5006568;28;19913;-78
2022/12/15 13:00:03;;;;;;;;;;;0.90;99.90;;;;;;5019481;28;20338;-78
2022/12/15 13:02:29;;;;;;;;;;;1.00;99.90;;;;;;5020553;28;19978;-78
2022/12/15 13:04:58;;;;;;;;;;;1.00;99.90;;;;;;5022604;28;19985;-77
2022/12/15 13:07:30;;;;;;;;;;;1.00;99.90;;;;;;5022678;28;19920;-77
2022/12/15 13:10:07;;;;;;;;;;;1.00;99.90;;;;;;5024326;28;19909;-78
2022/12/15 13:12:45;;;;;;;;;;;1.00;99.90;;;;;;5016910;28;19917;-77
2022/12/15 13:15:14;;;;;;;;;;;1.10;99.90;;;;;;5016803;28;19913;-77
2022/12/15 13:17:42;;;;;;;;;;;1.10;99.90;;;;;;5015932;28;19906;-78
2022/12/15 13:20:19;;;;;;;;;;;1.10;99.90;;;;;;5016486;28;19909;-77
2022/12/15 13:22:45;;;;;;;;;;;1.10;99.90;;;;;;5016426;28;19966;-78
2022/12/15 13:25:29;;;;;;;;;;;1.10;99.90;;;;;;5016247;28;19929;-78
2022/12/15 13:27:57;;;;;;;;;;;1.20;99.90;;;;;;5015892;28;19910;-78
2022/12/15 13:30:23;;;;;;;;;;;1.20;99.90;;;;;;5014846;28;19909;-78
2022/12/15 13:33:12;;;;;;;;;;;1.20;99.90;;;;;;5015869;28;19909;-77
2022/12/15 13:35:39;;;;;;;;;;;1.20;99.90;;;;;;5014752;28;19930;-77
2022/12/15 13:38:15;;;;;;;;;;;1.20;99.90;;;;;;5015191;28;19960;-79
2022/12/15 13:40:47;;;;;;;;;;;1.30;99.90;;;;;;5015195;28;20358;-79
2022/12/15 13:43:24;;;;;;;;;;;1.30;99.90;;;;;;5013790;28;19914;-78
2022/12/15 13:45:52;;;;;;;;;;;1.30;99.90;;;;;;5014863;28;19936;-78
2022/12/15 13:48:24;;;;;;;;;;;1.30;99.90;;;;;;5014978;28;19913;-78
2022/12/15 13:51:05;;;;;;;;;;;1.30;99.90;;;;;;5014592;28;19909;-79
2022/12/15 13:53:36;;;;;;;;;;;1.20;99.90;;;;;;5013335;28;19921;-78
2022/12/15 13:56:14;;;;;;;;;;;1.30;99.90;;;;;;5012462;28;19909;-78
2022/12/15 13:58:42;;;;;;;;;;;1.30;99.90;;;;;;5013290;28;20468;-79
2022/12/15 14:01:27;;;;;;;;;;;1.30;99.90;;;;;;5013490;28;19920;-78
2022/12/15 14:04:04;;;;;;;;;;;1.30;99.90;;;;;;5013582;28;20398;-78
2022/12/15 14:06:33;;;;;;;;;;;1.30;99.90;;;;;;5013299;28;19959;-78
2022/12/15 14:08:59;;;;;;;;;;;1.30;99.90;;;;;;5012741;28;19917;-78
2022/12/15 14:11:29;;;;;;;;;;;1.30;99.90;;;;;;5013093;28;19995;-79
2022/12/15 14:13:58;;;;;;;;;;;1.30;99.90;;;;;;5013252;28;19913;-78
2022/12/15 14:16:24;;;;;;;;;;;1.40;99.90;;;;;;5012993;28;19961;-79
2022/12/15 14:19:11;;;;;;;;;;;1.40;99.90;;;;;;5013810;28;20370;-77
2022/12/15 14:21:37;;;;;;;;;;;1.30;99.90;;;;;;5013396;28;19925;-78
2022/12/15 14:24:14;;;;;;;;;;;1.30;99.90;;;;;;5013414;28;20055;-77
2022/12/15 14:26:40;;;;;;;;;;;1.30;99.90;;;;;;5013544;28;19973;-78
2022/12/15 14:29:05;;;;;;;;;;;1.30;99.90;;;;;;5013637;28;20068;-77
2022/12/15 14:31:31;;;;;;;;;;;1.30;99.90;;;;;;5011735;28;20477;-78
2022/12/15 14:34:20;;;;;;;;;;;1.40;99.90;;;;;;5013614;28;20334;-77
2022/12/15 14:36:49;;;;;;;;;;;1.40;99.90;;;;;;5007563;28;20004;-78
2022/12/15 14:39:19;;;;;;;;;;;1.30;99.90;;;;;;5012372;28;19913;-77
2022/12/15 14:41:46;;;;;;;;;;;1.30;99.90;;;;;;5013192;28;19961;-78
2022/12/15 14:44:17;;;;;;;;;;;1.30;99.90;;;;;;5013660;28;20004;-78
2022/12/15 14:46:46;;;;;;;;;;;1.30;99.90;;;;;;5013300;28;19917;-78
2022/12/15 14:49:17;;;;;;;;;;;1.30;99.90;;;;;;5012945;28;19909;-78
2022/12/15 14:51:45;;;;;;;;;;;1.30;99.90;;;;;;5012260;28;19963;-79
2022/12/15 14:54:29;;;;;;;;;;;1.30;99.90;;;;;;5012376;28;19913;-79
2022/12/15 14:57:11;;;;;;;;;;;1.20;99.90;;;;;;5012520;28;20401;-79
2022/12/15 14:59:39;;;;;;;;;;;1.20;99.90;;;;;;5012248;28;19909;-78
2022/12/15 15:02:08;;;;;;;;;;;1.20;99.90;;;;;;5012153;28;19914;-79
2022/12/15 15:04:33;;;;;;;;;;;1.20;99.90;;;;;;5012239;28;19924;-79
2022/12/15 15:07:00;;;;;;;;;;;1.30;99.90;;;;;;5011026;28;20000;-78
2022/12/15 15:09:30;;;;;;;;;;;1.20;99.90;;;;;;5011842;28;20347;-79
2022/12/15 15:12:00;;;;;;;;;;;1.20;99.90;;;;;;5012044;28;19909;-79
2022/12/15 15:14:27;;;;;;;;;;;1.20;99.90;;;;;;5011448;28;20239;-78
2022/12/15 15:17:05;;;;;;;;;;;1.20;99.90;;;;;;5011757;28;19909;-78
2022/12/15 15:19:31;;;;;;;;;;;1.20;99.90;;;;;;5011070;28;19913;-78
2022/12/15 15:22:00;;;;;;;;;;;1.10;99.90;;;;;;5011389;28;19940;-77
2022/12/15 15:24:30;;;;;;;;;;;1.20;99.90;;;;;;5011675;28;19914;-77
2022/12/15 15:27:16;;;;;;;;;;;1.20;99.90;;;;;;5012273;28;19913;-76
2022/12/15 15:29:41;;;;;;;;;;;1.10;99.90;;;;;;5011568;28;19912;-77
2022/12/15 15:32:15;;;;;;;;;;;1.10;99.90;;;;;;5011977;28;19913;-77
2022/12/15 15:34:41;;;;;;;;;;;1.10;99.90;;;;;;5011757;28;20040;-77
2022/12/15 15:37:17;;;;;;;;;;;1.10;99.90;;;;;;5010494;28;19956;-77
2022/12/15 15:39:43;;;;;;;;;;;1.10;99.90;;;;;;5010333;28;19932;-77
2022/12/15 15:42:12;;;;;;;;;;;1.00;99.90;;;;;;5012038;28;20008;-77
2022/12/15 15:44:39;;;;;;;;;;;0.90;99.90;;;;;;5011519;28;19913;-78
2022/12/15 15:47:05;;;;;;;;;;;0.90;99.90;;;;;;5011380;28;20537;-77
2022/12/15 15:49:31;;;;;;;;;;;0.80;99.90;;;;;;5011225;28;20366;-77
2022/12/15 15:51:57;;;;;;;;;;;0.70;99.90;;;;;;5011597;28;19910;-78
2022/12/15 15:54:24;;;;;;;;;;;0.70;99.90;;;;;;5011494;28;19910;-79
2022/12/15 15:56:49;;;;;;;;;;;0.70;99.90;;;;;;5011690;28;19996;-76
2022/12/15 15:59:16;;;;;;;;;;;0.60;99.90;;;;;;5011553;28;19953;-77
2022/12/15 16:01:43;;;;;;;;;;;0.70;99.90;;;;;;5010590;28;19917;-76
2022/12/15 16:04:08;;;;;;;;;;;0.70;99.90;;;;;;5012074;28;19913;-76
2022/12/15 16:06:34;;;;;;;;;;;0.70;99.90;;;;;;5009580;28;19909;-80
2022/12/15 16:09:00;;;;;;;;;;;0.60;99.90;;;;;;5010580;28;19910;-78
2022/12/15 16:11:27;;;;;;;;;;;0.60;99.90;;;;;;5011266;28;20319;-77
2022/12/15 16:13:53;;;;;;;;;;;0.60;99.90;;;;;;5011317;28;19910;-77
2022/12/15 16:16:21;;;;;;;;;;;0.60;99.90;;;;;;5011268;28;19909;-76
2022/12/15 16:18:47;;;;;;;;;;;0.50;99.90;;;;;;5010884;28;20007;-76
2022/12/15 16:21:13;;;;;;;;;;;0.50;99.90;;;;;;5010950;28;20507;-79
2022/12/15 16:23:40;;;;;;;;;;;0.50;99.90;;;;;;5010435;28;19953;-78
2022/12/15 16:26:08;;;;;;;;;;;0.40;99.90;;;;;;5011093;28;19916;-79
2022/12/15 16:28:34;;;;;;;;;;;0.40;99.90;;;;;;5010613;28;19968;-77
2022/12/15 16:31:00;;;;;;;;;;;0.40;99.90;;;;;;5010993;28;19922;-78
2022/12/15 16:33:26;;;;;;;;;;;0.30;99.90;;;;;;5012269;28;19914;-78
2022/12/15 16:35:52;;;;;;;;;;;0.30;99.90;;;;;;5014494;28;19922;-77
2022/12/15 16:38:18;;;;;;;;;;;0.30;99.90;;;;;;5014788;28;19910;-79
2022/12/15 16:40:44;;;;;;;;;;;0.30;99.90;;;;;;5016675;28;19996;-79
2022/12/15 16:43:13;;;;;;;;;;;0.20;99.90;;;;;;5017276;28;20270;-77
2022/12/15 16:45:41;;;;;;;;;;;0.20;99.90;;;;;;5016569;28;19992;-78
2022/12/15 16:48:07;;;;;;;;;;;0.20;99.90;;;;;;5016209;28;19978;-79
2022/12/15 16:50:34;;;;;;;;;;;0.10;99.90;;;;;;5014883;28;19928;-79
2022/12/15 16:53:02;;;;;;;;;;;0.10;99.90;;;;;;5015091;28;20449;-78